createdAt,value
2017-07-05T00:01:47.737Z,84.20
2017-07-05T00:04:15.209Z,84.60
2017-07-05T00:06:42.700Z,83.90
2017-07-05T00:09:10.943Z,85.00
2017-07-05T00:11:38.438Z,84.50
2017-07-05T00:14:06.706Z,84.40
2017-07-05T00:16:34.940Z,84.80
2017-07-05T00:19:02.444Z,84.80
2017-07-05T00:21:30.694Z,85.70
2017-07-05T00:23:58.173Z,85.20
2017-07-05T00:26:25.661Z,86.10
2017-07-05T00:28:53.135Z,85.40
2017-07-05T00:31:20.653Z,85.20
2017-07-05T00:33:48.892Z,86.10
2017-07-05T00:36:16.393Z,86.00
2017-07-05T00:38:44.637Z,84.90
2017-07-05T00:41:12.121Z,84.80
2017-07-05T00:43:40.379Z,85.90
2017-07-05T00:46:07.846Z,85.90
2017-07-05T00:48:35.346Z,86.90
2017-07-05T00:51:02.822Z,86.20
2017-07-05T00:53:30.306Z,85.90
2017-07-05T00:55:57.830Z,86.60
2017-07-05T00:58:25.316Z,85.30
2017-07-05T01:00:52.808Z,85.90
2017-07-05T01:03:21.053Z,87.00
2017-07-05T01:05:48.541Z,87.00
2017-07-05T01:08:16.809Z,87.00
2017-07-05T01:10:45.054Z,86.90
2017-07-05T01:13:12.544Z,86.70
2017-07-05T01:15:40.795Z,86.90
2017-07-05T01:18:08.293Z,86.80
2017-07-05T01:20:35.778Z,87.10
2017-07-05T01:23:03.275Z,87.30
2017-07-05T01:25:30.762Z,88.20
2017-07-05T01:27:58.999Z,88.70
2017-07-05T01:30:26.505Z,88.60
2017-07-05T01:32:53.983Z,87.70
2017-07-05T01:35:21.453Z,87.60
2017-07-05T01:37:48.949Z,88.80
2017-07-05T01:40:16.418Z,89.60
2017-07-05T01:42:44.681Z,89.30
2017-07-05T01:45:12.173Z,89.30
2017-07-05T01:47:39.669Z,90.20
2017-07-05T01:50:07.218Z,90.30
2017-07-05T01:52:34.704Z,90.30
2017-07-05T01:55:02.217Z,90.20
2017-07-05T01:57:29.717Z,89.80
2017-07-05T01:59:57.228Z,90.20
2017-07-05T02:02:24.715Z,90.00
2017-07-05T02:04:52.226Z,89.50
2017-07-05T02:07:20.484Z,90.00
2017-07-05T02:09:47.989Z,89.70
2017-07-05T02:12:15.487Z,89.70
2017-07-05T02:14:42.972Z,89.60
2017-07-05T02:17:11.245Z,89.20
2017-07-05T02:19:39.513Z,90.20
2017-07-05T02:22:07.017Z,90.10
2017-07-05T02:24:34.505Z,89.00
2017-07-05T02:27:02.047Z,90.00
2017-07-05T02:29:29.540Z,90.30
2017-07-05T02:31:57.026Z,89.90
2017-07-05T02:34:25.294Z,89.50
2017-07-05T02:36:53.534Z,90.60
2017-07-05T02:39:21.030Z,90.60
2017-07-05T02:41:49.272Z,90.60
2017-07-05T02:44:16.756Z,90.40
2017-07-05T02:46:45.030Z,90.70
2017-07-05T02:49:12.553Z,90.50
2017-07-05T02:51:40.103Z,90.50
2017-07-05T02:54:07.594Z,90.90
2017-07-05T02:56:35.098Z,91.00
2017-07-05T02:59:02.579Z,91.10
2017-07-05T03:01:30.065Z,91.10
2017-07-05T03:03:57.569Z,90.80
2017-07-05T03:06:25.057Z,91.00
2017-07-05T03:08:52.605Z,91.30
2017-07-05T03:11:20.082Z,91.30
2017-07-05T03:13:47.586Z,91.40
2017-07-05T03:16:15.822Z,91.60
2017-07-05T03:25:29.300Z,91.60
2017-07-05T03:27:56.782Z,91.30
2017-07-05T03:30:24.299Z,91.30
2017-07-05T03:32:51.776Z,91.50
2017-07-05T03:35:19.253Z,91.00
2017-07-05T03:37:46.763Z,91.70
2017-07-05T03:40:14.256Z,91.50
2017-07-05T03:42:41.758Z,91.50
2017-07-05T03:45:10.009Z,91.40
2017-07-05T03:47:37.513Z,91.70
2017-07-05T03:50:05.006Z,91.30
2017-07-05T03:52:32.531Z,91.40
2017-07-05T03:55:00.012Z,91.40
2017-07-05T03:57:27.506Z,91.40
2017-07-05T03:59:55.773Z,91.40
2017-07-05T04:02:23.261Z,91.10
2017-07-05T04:04:50.768Z,91.30
2017-07-05T04:07:18.282Z,91.10
2017-07-05T04:09:45.789Z,91.70
2017-07-05T04:12:13.268Z,91.80
2017-07-05T04:14:40.774Z,91.50
2017-07-05T04:17:08.268Z,91.40
2017-07-05T04:19:35.742Z,91.40
2017-07-05T04:22:03.232Z,91.10
2017-07-05T04:24:30.717Z,91.40
2017-07-05T04:26:58.229Z,91.00
2017-07-05T04:29:26.477Z,90.60
2017-07-05T04:31:53.988Z,90.60
2017-07-05T04:34:21.473Z,90.60
2017-07-05T04:36:48.949Z,90.50
2017-07-05T04:39:16.455Z,90.30
2017-07-05T04:41:43.934Z,90.60
2017-07-05T04:44:11.426Z,90.40
2017-07-05T04:46:38.937Z,90.00
2017-07-05T04:49:06.425Z,89.80
2017-07-05T04:51:33.909Z,90.10
2017-07-05T04:54:01.418Z,88.90
2017-07-05T04:56:28.906Z,88.30
2017-07-05T04:58:56.420Z,86.80
2017-07-05T05:01:23.945Z,86.90
2017-07-05T05:03:51.434Z,86.50
2017-07-05T05:06:18.945Z,86.10
2017-07-05T05:08:46.439Z,85.70
2017-07-05T05:11:14.685Z,84.70
2017-07-05T05:13:42.181Z,85.20
2017-07-05T05:16:09.690Z,84.60
2017-07-05T05:18:37.191Z,84.60
2017-07-05T05:21:05.441Z,83.00
2017-07-05T05:23:32.913Z,83.00
2017-07-05T05:26:00.401Z,82.50
2017-07-05T05:28:27.896Z,82.50
2017-07-05T05:30:55.386Z,81.90
2017-07-05T05:33:22.877Z,82.00
2017-07-05T05:35:50.391Z,80.80
2017-07-05T05:38:17.861Z,79.80
2017-07-05T05:40:45.353Z,79.20
2017-07-05T05:43:12.826Z,78.50
2017-07-05T05:45:40.317Z,78.00
2017-07-05T05:48:07.818Z,77.90
2017-07-05T05:50:35.294Z,77.60
2017-07-05T05:53:02.875Z,76.80
2017-07-05T05:55:31.077Z,75.90
2017-07-05T05:57:58.559Z,75.90
2017-07-05T06:00:26.073Z,76.20
2017-07-05T06:02:53.540Z,74.10
2017-07-05T06:05:21.017Z,73.60
2017-07-05T06:07:48.541Z,72.90
2017-07-05T06:10:16.017Z,73.20
2017-07-05T06:12:43.501Z,72.30
2017-07-05T06:15:11.012Z,70.60
2017-07-05T06:17:38.485Z,70.30
2017-07-05T06:20:05.976Z,70.70
2017-07-05T06:22:33.489Z,70.80
2017-07-05T06:25:00.989Z,70.30
2017-07-05T06:27:28.466Z,69.70
2017-07-05T06:29:55.969Z,68.70
2017-07-05T06:32:23.442Z,68.40
2017-07-05T06:34:50.917Z,68.40
2017-07-05T06:37:18.405Z,66.00
2017-07-05T06:39:46.657Z,65.50
2017-07-05T06:42:14.169Z,65.40
2017-07-05T06:44:41.664Z,64.60
2017-07-05T06:47:09.142Z,63.30
2017-07-05T06:49:36.638Z,62.50
2017-07-05T06:52:04.183Z,62.50
2017-07-05T06:54:31.609Z,62.60
2017-07-05T06:56:59.115Z,62.40
2017-07-05T06:59:26.597Z,60.80
2017-07-05T07:01:54.095Z,59.50
2017-07-05T07:04:21.610Z,58.10
2017-07-05T07:06:49.090Z,55.90
2017-07-05T07:09:16.600Z,53.10
2017-07-05T07:11:44.077Z,51.00
2017-07-05T07:14:11.578Z,49.00
2017-07-05T07:16:39.064Z,48.10
2017-07-05T07:19:06.561Z,47.00
2017-07-05T07:21:34.052Z,46.50
2017-07-05T07:24:01.553Z,44.90
2017-07-05T07:26:29.030Z,44.80
2017-07-05T07:28:56.497Z,42.30
2017-07-05T07:31:23.990Z,42.30
2017-07-05T07:33:52.238Z,43.40
2017-07-05T07:36:19.743Z,43.10
2017-07-05T07:38:47.993Z,43.10
2017-07-05T07:41:15.462Z,43.00
2017-07-05T07:43:43.717Z,40.00
2017-07-05T07:46:11.192Z,39.90
2017-07-05T07:48:38.690Z,39.70
2017-07-05T07:51:06.165Z,40.60
2017-07-05T07:53:33.643Z,37.90
2017-07-05T07:56:01.144Z,36.40
2017-07-05T07:58:28.620Z,36.80
2017-07-05T08:00:56.121Z,36.80
2017-07-05T08:03:23.594Z,39.20
2017-07-05T08:05:51.092Z,36.50
2017-07-05T08:08:18.580Z,35.90
2017-07-05T08:10:46.061Z,35.00
2017-07-05T08:13:13.566Z,32.70
2017-07-05T08:15:41.050Z,32.20
2017-07-05T08:18:08.562Z,34.60
2017-07-05T08:20:36.073Z,33.90
2017-07-05T08:23:03.541Z,35.50
2017-07-05T08:25:31.043Z,35.20
2017-07-05T08:27:59.305Z,34.40
2017-07-05T08:30:27.543Z,33.90
2017-07-05T08:32:55.043Z,33.90
2017-07-05T08:35:22.522Z,34.10
2017-07-05T08:37:50.030Z,33.20
2017-07-05T08:40:17.533Z,32.40
2017-07-05T08:42:45.020Z,33.90
2017-07-05T08:45:12.556Z,33.20
2017-07-05T08:47:40.033Z,31.90
2017-07-05T08:50:07.587Z,31.90
2017-07-05T08:52:35.076Z,32.30
2017-07-05T08:55:02.569Z,32.90
2017-07-05T08:57:30.050Z,33.50
2017-07-05T08:59:57.541Z,33.30
2017-07-05T09:02:25.013Z,33.50
2017-07-05T09:04:52.489Z,33.60
2017-07-05T09:07:20.772Z,31.80
2017-07-05T09:09:48.278Z,31.80
2017-07-05T09:12:15.780Z,32.50
2017-07-05T09:14:43.313Z,32.80
2017-07-05T09:17:10.781Z,32.10
2017-07-05T09:19:38.289Z,31.60
2017-07-05T09:22:05.780Z,30.80
2017-07-05T09:24:33.272Z,30.70
2017-07-05T09:27:00.757Z,31.00
2017-07-05T09:29:28.991Z,30.20
2017-07-05T09:31:56.497Z,30.20
2017-07-05T09:34:23.981Z,32.00
2017-07-05T09:36:51.483Z,32.40
2017-07-05T09:39:18.950Z,30.90
2017-07-05T09:41:47.228Z,29.60
2017-07-05T09:44:15.465Z,28.20
2017-07-05T09:46:42.969Z,28.10
2017-07-05T09:49:11.219Z,30.60
2017-07-05T09:51:38.698Z,31.20
2017-07-05T09:54:06.962Z,28.60
2017-07-05T09:56:34.457Z,28.60
2017-07-05T09:59:01.937Z,28.00
2017-07-05T10:01:29.413Z,29.30
2017-07-05T10:03:56.922Z,30.00
2017-07-05T10:06:24.401Z,31.20
2017-07-05T10:08:51.878Z,32.00
2017-07-05T10:11:19.390Z,32.20
2017-07-05T10:13:46.894Z,34.60
2017-07-05T10:16:14.400Z,35.40
2017-07-05T10:18:41.882Z,32.90
2017-07-05T10:21:09.391Z,30.90
2017-07-05T10:23:36.869Z,29.00
2017-07-05T10:26:04.419Z,27.60
2017-07-05T10:28:31.889Z,27.80
2017-07-05T10:30:59.409Z,28.80
2017-07-05T10:33:26.916Z,28.20
2017-07-05T10:35:55.157Z,27.70
2017-07-05T10:38:22.644Z,27.70
2017-07-05T10:40:50.885Z,28.40
2017-07-05T10:43:18.378Z,28.40
2017-07-05T10:45:46.696Z,28.10
2017-07-05T10:48:14.201Z,28.10
2017-07-05T10:50:42.483Z,27.80
2017-07-05T10:53:09.955Z,27.80
2017-07-05T10:55:37.457Z,26.50
2017-07-05T10:58:04.940Z,26.60
2017-07-05T11:00:32.443Z,26.20
2017-07-05T11:02:59.934Z,28.80
2017-07-05T11:05:27.404Z,30.70
2017-07-05T11:07:54.878Z,33.10
2017-07-05T11:10:22.393Z,30.90
2017-07-05T11:12:49.880Z,31.10
2017-07-05T11:15:17.357Z,31.40
2017-07-05T11:17:44.855Z,31.30
2017-07-05T11:20:12.326Z,33.90
2017-07-05T11:22:39.833Z,35.40
2017-07-05T11:25:07.309Z,35.10
2017-07-05T11:27:35.549Z,32.90
2017-07-05T11:30:03.032Z,32.90
2017-07-05T11:32:31.270Z,36.50
2017-07-05T11:34:58.769Z,35.80
2017-07-05T11:37:27.012Z,36.90
2017-07-05T11:39:54.498Z,36.80
2017-07-05T11:42:22.758Z,35.80
2017-07-05T11:44:50.262Z,35.60
2017-07-05T11:47:17.773Z,35.60
2017-07-05T11:49:45.252Z,37.80
2017-07-05T11:52:13.534Z,36.90
2017-07-05T11:54:41.779Z,37.50
2017-07-05T11:57:09.278Z,37.50
2017-07-05T11:59:36.788Z,37.00
2017-07-05T12:02:04.265Z,35.80
2017-07-05T12:04:31.749Z,35.30
2017-07-05T12:07:00.001Z,38.90
2017-07-05T12:09:27.522Z,38.90
2017-07-05T12:11:55.011Z,37.80
2017-07-05T12:14:22.511Z,38.00
2017-07-05T12:16:49.987Z,38.70
2017-07-05T12:19:17.470Z,39.60
2017-07-05T12:21:44.964Z,38.30
2017-07-05T12:24:13.210Z,39.50
2017-07-05T12:26:40.688Z,39.50
2017-07-05T12:29:08.195Z,38.40
2017-07-05T12:31:35.666Z,36.50
2017-07-05T12:34:03.168Z,37.40
2017-07-05T12:36:31.404Z,36.10
2017-07-05T12:38:58.901Z,36.00
2017-07-05T12:41:26.373Z,36.30
2017-07-05T12:43:54.630Z,36.40
2017-07-05T12:46:22.104Z,36.40
2017-07-05T12:48:50.346Z,35.80
2017-07-05T12:51:17.877Z,35.80
2017-07-05T12:53:45.345Z,35.90
2017-07-05T12:56:12.847Z,36.60
2017-07-05T12:58:41.104Z,37.40
2017-07-05T13:01:09.457Z,37.40
2017-07-05T13:03:36.961Z,35.40
2017-07-05T13:06:05.194Z,35.80
2017-07-05T13:08:32.711Z,35.80
2017-07-05T13:11:00.197Z,36.60
2017-07-05T13:13:27.701Z,35.40
2017-07-05T13:15:55.184Z,36.30
2017-07-05T13:18:23.456Z,37.60
2017-07-05T13:20:51.721Z,36.00
2017-07-05T13:23:19.969Z,37.50
2017-07-05T13:25:47.470Z,37.50
2017-07-05T13:28:15.708Z,36.20
2017-07-05T13:30:43.246Z,36.20
2017-07-05T13:33:10.720Z,36.50
2017-07-05T13:35:38.205Z,38.40
2017-07-05T13:38:06.469Z,37.30
2017-07-05T13:40:33.943Z,36.60
2017-07-05T13:43:02.222Z,36.50
2017-07-05T13:45:30.462Z,37.10
2017-07-05T13:47:57.981Z,37.00
2017-07-05T13:50:25.491Z,35.90
2017-07-05T13:52:53.013Z,34.90
2017-07-05T13:55:20.493Z,35.30
2017-07-05T13:57:48.032Z,34.50
2017-07-05T14:00:15.542Z,34.80
2017-07-05T14:02:43.048Z,35.10
2017-07-05T14:05:10.553Z,34.60
2017-07-05T14:07:38.025Z,34.00
2017-07-05T14:10:06.305Z,33.60
2017-07-05T14:12:34.540Z,32.60
2017-07-05T14:15:02.022Z,32.60
2017-07-05T14:17:29.521Z,34.70
2017-07-05T14:19:57.016Z,33.30
2017-07-05T14:22:24.556Z,34.50
2017-07-05T14:24:52.041Z,35.10
2017-07-05T14:27:19.522Z,35.20
2017-07-05T14:29:47.026Z,33.70
2017-07-05T14:32:14.501Z,34.10
2017-07-05T14:34:41.993Z,35.10
2017-07-05T14:37:09.481Z,34.30
2017-07-05T14:39:36.992Z,33.90
2017-07-05T14:42:04.483Z,33.90
2017-07-05T14:44:32.740Z,34.20
2017-07-05T14:47:01.015Z,33.30
2017-07-05T14:49:28.481Z,33.10
2017-07-05T14:51:56.089Z,32.80
2017-07-05T14:54:23.572Z,33.00
2017-07-05T14:56:51.065Z,31.90
2017-07-05T14:59:19.324Z,31.30
2017-07-05T15:01:46.793Z,31.80
2017-07-05T15:04:15.039Z,30.30
2017-07-05T15:09:10.782Z,30.40
2017-07-05T15:11:38.272Z,30.40
2017-07-05T15:14:06.720Z,31.90
2017-07-05T15:16:34.211Z,31.80
2017-07-05T15:19:02.452Z,29.70
2017-07-05T15:21:29.955Z,29.70
2017-07-05T15:23:57.769Z,30.90
2017-07-05T15:26:25.250Z,30.80
2017-07-05T15:28:52.765Z,30.10
2017-07-05T15:31:20.240Z,31.10
2017-07-05T15:33:47.924Z,32.20
2017-07-05T15:36:15.457Z,32.60
2017-07-05T15:38:42.934Z,33.70
2017-07-05T15:41:10.424Z,33.40
2017-07-05T15:43:38.698Z,32.50
2017-07-05T15:46:06.945Z,32.80
2017-07-05T15:48:34.442Z,32.80
2017-07-05T15:51:01.951Z,34.00
2017-07-05T15:53:29.441Z,33.20
2017-07-05T15:55:56.909Z,35.30
2017-07-05T15:58:25.197Z,36.00
2017-07-05T16:00:52.700Z,35.90
2017-07-05T16:03:20.196Z,33.40
2017-07-05T16:05:48.488Z,33.80
2017-07-05T16:08:15.960Z,33.80
2017-07-05T16:10:43.498Z,34.50
2017-07-05T16:13:11.734Z,33.50
2017-07-05T16:15:39.238Z,33.60
2017-07-05T16:18:07.473Z,34.00
2017-07-05T16:20:34.972Z,34.00
2017-07-05T16:23:02.505Z,33.20
2017-07-05T16:25:30.793Z,34.20
2017-07-05T16:27:58.295Z,34.20
2017-07-05T16:30:25.762Z,34.40
2017-07-05T16:32:53.297Z,34.90
2017-07-05T16:35:20.778Z,34.70
2017-07-05T16:37:48.293Z,34.70
2017-07-05T16:40:16.541Z,34.40
2017-07-05T16:42:44.060Z,34.30
2017-07-05T16:45:11.549Z,34.20
2017-07-05T16:47:39.022Z,35.20
2017-07-05T16:50:06.649Z,34.70
2017-07-05T16:52:34.152Z,35.80
2017-07-05T16:55:01.636Z,35.30
2017-07-05T16:57:29.138Z,35.70
2017-07-05T16:59:56.625Z,35.90
2017-07-05T17:02:24.133Z,37.20
2017-07-05T17:04:51.609Z,36.20
2017-07-05T17:07:19.106Z,36.00
2017-07-05T17:09:46.603Z,36.90
2017-07-05T17:12:14.090Z,37.20
2017-07-05T17:14:41.578Z,36.60
2017-07-05T17:17:09.054Z,36.70
2017-07-05T17:19:36.535Z,36.50
2017-07-05T17:22:04.046Z,37.20
2017-07-05T17:24:31.532Z,38.00
2017-07-05T17:26:59.021Z,37.50
2017-07-05T17:29:26.530Z,38.10
2017-07-05T17:31:54.803Z,38.90
2017-07-05T17:34:22.327Z,38.80
2017-07-05T17:36:49.810Z,39.50
2017-07-05T17:39:17.297Z,38.50
2017-07-05T17:41:45.545Z,40.00
2017-07-05T17:44:13.074Z,39.90
2017-07-05T17:46:40.574Z,39.40
2017-07-05T17:49:08.079Z,40.10
2017-07-05T17:51:35.565Z,39.50
2017-07-05T17:54:03.199Z,40.40
2017-07-05T17:56:30.693Z,40.10
2017-07-05T17:58:58.317Z,39.90
2017-07-05T18:01:25.800Z,38.90
2017-07-05T18:03:53.375Z,39.40
2017-07-05T18:06:20.848Z,39.80
2017-07-05T18:08:48.354Z,39.60
2017-07-05T18:11:15.834Z,39.80
2017-07-05T18:13:43.481Z,39.50
2017-07-05T18:16:10.988Z,39.90
2017-07-05T18:18:38.467Z,40.70
2017-07-05T18:21:05.970Z,41.10
2017-07-05T18:23:33.784Z,41.10
2017-07-05T18:26:02.073Z,41.70
2017-07-05T18:28:29.582Z,41.70
2017-07-05T18:30:57.744Z,41.90
2017-07-05T18:33:25.239Z,42.00
2017-07-05T18:35:54.281Z,44.00
2017-07-05T18:38:21.791Z,44.00
2017-07-05T18:40:49.303Z,44.40
2017-07-05T18:43:16.785Z,44.30
2017-07-05T18:45:44.263Z,43.60
2017-07-05T18:48:11.836Z,43.70
2017-07-05T18:50:40.074Z,45.20
2017-07-05T18:53:07.674Z,44.70
2017-07-05T18:55:35.921Z,44.80
2017-07-05T18:58:03.485Z,44.80
2017-07-05T19:00:30.966Z,46.20
2017-07-05T19:02:59.205Z,47.00
2017-07-05T19:05:26.711Z,46.40
2017-07-05T19:07:54.189Z,48.90
2017-07-05T19:10:21.707Z,48.50
2017-07-05T19:12:49.967Z,48.10
2017-07-05T19:15:17.473Z,47.40
2017-07-05T19:17:44.966Z,47.70
2017-07-05T19:20:12.992Z,49.70
2017-07-05T19:22:41.264Z,51.40
2017-07-05T19:25:12.008Z,51.60
2017-07-05T19:27:39.524Z,51.60
2017-07-05T19:30:07.008Z,51.40
2017-07-05T19:32:35.259Z,51.20
2017-07-05T19:35:02.771Z,51.20
2017-07-05T19:37:30.393Z,51.40
2017-07-05T19:39:57.899Z,52.20
2017-07-05T19:42:25.376Z,52.20
2017-07-05T19:44:52.910Z,51.90
2017-07-05T19:47:20.389Z,52.70
2017-07-05T19:49:47.899Z,52.40
2017-07-05T19:52:16.156Z,53.70
2017-07-05T19:54:43.681Z,53.70
2017-07-05T19:57:11.176Z,53.70
2017-07-05T19:59:38.659Z,54.00
2017-07-05T20:02:06.149Z,54.50
2017-07-05T20:04:33.665Z,54.30
2017-07-05T20:07:01.909Z,56.20
2017-07-05T20:09:29.404Z,56.20
2017-07-05T20:11:57.666Z,54.50
2017-07-05T20:14:25.169Z,54.50
2017-07-05T20:16:52.661Z,55.10
2017-07-05T20:19:20.141Z,54.30
2017-07-05T20:21:47.663Z,54.40
2017-07-05T20:24:15.136Z,54.60
2017-07-05T20:26:42.609Z,54.40
2017-07-05T20:29:10.113Z,54.90
2017-07-05T20:31:37.598Z,53.90
2017-07-05T20:34:05.095Z,53.90
2017-07-05T20:36:33.350Z,53.60
2017-07-05T20:39:00.867Z,53.60
2017-07-05T20:41:28.358Z,53.40
2017-07-05T20:43:55.860Z,54.50
2017-07-05T20:46:24.108Z,54.00
2017-07-05T20:48:53.655Z,54.00
2017-07-05T20:51:21.137Z,53.60
2017-07-05T20:53:48.692Z,53.50
2017-07-05T20:56:16.166Z,53.40
2017-07-05T20:58:43.638Z,53.60
2017-07-05T21:01:11.133Z,53.50
2017-07-05T21:03:39.373Z,54.40
2017-07-05T21:06:06.865Z,54.40
2017-07-05T21:08:35.121Z,54.80
2017-07-05T21:11:02.641Z,54.70
2017-07-05T21:13:30.109Z,54.60
2017-07-05T21:15:57.585Z,54.80
2017-07-05T21:18:25.076Z,54.70
2017-07-05T21:20:53.321Z,55.90
2017-07-05T21:23:20.832Z,55.80
2017-07-05T21:25:48.313Z,55.60
2017-07-05T21:28:15.821Z,56.40
2017-07-05T21:30:44.083Z,55.00
2017-07-05T21:33:11.557Z,55.00
2017-07-05T21:35:39.830Z,55.80
2017-07-05T21:38:07.329Z,55.80
2017-07-05T21:40:35.577Z,56.60
2017-07-05T21:43:03.072Z,56.60
2017-07-05T21:45:31.348Z,57.40
2017-07-05T21:47:59.622Z,56.20
2017-07-05T21:50:27.913Z,57.00
2017-07-05T21:52:55.433Z,56.90
2017-07-05T21:55:22.909Z,56.90
2017-07-05T21:57:51.173Z,57.30
2017-07-05T22:00:18.684Z,57.20
2017-07-05T22:02:46.201Z,57.30
2017-07-05T22:05:14.449Z,57.90
2017-07-05T22:07:41.957Z,57.80
2017-07-05T22:10:09.441Z,58.10
2017-07-05T22:12:36.927Z,59.00
2017-07-05T22:15:04.409Z,58.70
2017-07-05T22:17:32.664Z,59.50
2017-07-05T22:20:00.169Z,59.50
2017-07-05T22:22:27.651Z,58.20
2017-07-05T22:24:55.148Z,58.80
2017-07-05T22:27:22.658Z,58.20
2017-07-05T22:29:50.133Z,59.20
2017-07-05T22:32:17.645Z,58.50
2017-07-05T22:34:45.897Z,60.40
2017-07-05T22:37:13.374Z,60.30
2017-07-05T22:39:41.638Z,58.80
2017-07-05T22:42:09.118Z,58.70
2017-07-05T22:44:37.385Z,59.20
2017-07-05T22:47:05.638Z,62.90
2017-07-05T22:49:33.195Z,62.70
2017-07-05T22:52:00.687Z,63.80
2017-07-05T22:54:28.997Z,65.50
2017-07-05T22:56:56.501Z,65.40
2017-07-05T22:59:24.017Z,67.80
2017-07-05T23:01:51.517Z,68.30
2017-07-05T23:04:19.031Z,67.00
2017-07-05T23:06:46.502Z,67.30
2017-07-05T23:09:14.015Z,66.40
2017-07-05T23:11:42.259Z,66.50
2017-07-05T23:14:09.763Z,66.40
2017-07-05T23:16:37.252Z,66.50
2017-07-05T23:19:04.733Z,66.80
2017-07-05T23:21:32.222Z,65.70
2017-07-05T23:24:00.464Z,67.10
2017-07-05T23:26:27.953Z,67.70
2017-07-05T23:28:56.221Z,65.40
2017-07-05T23:31:24.488Z,65.70
2017-07-05T23:33:51.986Z,65.60
2017-07-05T23:36:19.482Z,67.90
2017-07-05T23:38:46.981Z,67.70
2017-07-05T23:41:15.241Z,69.50
2017-07-05T23:43:42.728Z,69.40
2017-07-05T23:46:10.224Z,71.60
2017-07-05T23:48:37.702Z,70.60
2017-07-05T23:51:05.174Z,72.00
2017-07-05T23:53:32.672Z,69.60
2017-07-05T23:56:00.144Z,70.80
2017-07-05T23:58:27.639Z,70.70
